Tiempo atmosférico en la estación meteorológica de Las Palmas de Gran Canaria, Tafira, Las Palmas (269 m.)



Fecha
DESCASC
Temp. máxima en grados centígrados (hora)
DESCASC
Temp. mínima en grados centígrados (hora)
DESCASC
Temp. media en grados centígrados
DESCASC
Racha de viento máxima en m/sg (hora)
DESCASC
Velocidad máxima media en intervalos de 10 minutos(hora)
DESCASC
Precipitaciones diarias en mm
DESCASC
Precipitaciones de 00:00 a 06:00 en mm
DESCASC
Precipitaciones de 06:00 a 12:00 en mm
DESCASC
Precipitaciones de 12:00 a 18:00 en mm
DESCASC
Precipitaciones de 18:00 a 24:00 en mm
DESCASC
22-04-2019 20 (14:50) 15.4 (03:30) 17.7 13.33 (20:50) 6.94 (14:30) 0 0 0 0 0
21-04-2019 19.8 (14:10) 14.5 (08:10) 17.1 10.83 (16:00) 6.67 (13:10) 0.2 0 0.2 0 0
20-04-2019 17.8 (15:10) 13.9 (08:30) 15.8 10.28 (05:50) 6.67 (16:20) 1 0 0.2 0.6 0.2
19-04-2019 18.4 (15:20) 14.6 (05:30) 16.5 11.67 (21:40) 6.67 (18:20) 0 0 0 0 0
18-04-2019 18.7 (14:10) 15.3 (00:00) 17 10 (15:50) 5.83 (10:30) 0 0 0 0 0
17-04-2019 21.3 (11:50) 14.3 (00:00) 17.8 9.17 (17:30) 5.28 (14:10) 0 0 0 0 0
16-04-2019 21.1 (15:20) 15.7 (00:00) 18.4 7.78 (22:20) 4.72 (22:10) 0 0 0 0 0
15-04-2019 21.3 (16:40) 15.4 (00:00) 18.3 8.89 (03:10) 5.28 (03:00) 0 0 0 0 0
14-04-2019 20.1 (14:20) 12.5 (00:00) 16.3 9.17 (17:10) 5.83 (17:20) 0 0 0 0 0
13-04-2019 19.5 (16:30) 15 (00:00) 17.3 8.33 (12:10) 4.44 (12:20) 0 0 0 0 0
12-04-2019 18.7 (15:50) 14.7 (00:00) 16.7 9.17 (01:50) 5 (17:10) 0 0 0 0 0
11-04-2019 17.9 (14:40) 14.7 (00:00) 16.3 10.56 (22:20) 6.11 (18:10) 0 0 0 0 0
10-04-2019 18.6 (13:10) 14.1 (00:00) 16.4 10.28 (18:00) 5.83 (19:10) 0.2 0 0.2 0 0
09-04-2019 18.4 (11:10) 14 (00:00) 16.2 7.22 (12:30) 3.89 (21:20) 1.2 0 0 1.2 0
08-04-2019 18.4 (13:30) 14.1 (00:00) 16.3 8.06 (14:00) 4.72 (13:20) 0.6 0.2 0.4 0 0
07-04-2019 19.1 (14:30) 12.3 (00:00) 15.7 9.72 (13:50) 5.28 (13:50) 0 0 0 0 0
06-04-2019 18 (15:00) 14 (00:00) 16 11.67 (13:40) 7.5 (13:40) 0 0 0 0 0
05-04-2019 18.6 (15:50) 12.8 (00:00) 15.7 11.94 (20:00) 7.22 (16:50) 0.6 0.4 0 0.2 0
04-04-2019 17.2 (14:00) 12 (00:00) 14.6 10.56 (16:50) 5.83 (15:10) 9.2 8 1.2 0 0
03-04-2019 17.7 (17:00) 13.7 (00:00) 15.7 7.5 (12:30) 4.72 (16:30) 8.6 0 3 3.4 2.2
02-04-2019 19.7 (13:20) 13.3 (00:00) 16.5 8.33 (17:50) 4.17 (17:50) 0 0 0 0 0
01-04-2019 -- (--) -- (--) -- -- (--) -- (--) -- 0 0 -- 0
31-03-2019 19.7 (12:00) 12.3 (00:00) 16 6.94 (04:50) 3.61 (13:50) 0 0 0 0 0
30-03-2019 18.4 (13:10) 11.5 (00:00) 14.9 7.22 (14:00) 3.61 (19:00) 0 0 0 0 0
29-03-2019 19.1 (11:30) 11.6 (00:00) 15.4 6.94 (21:20) 3.33 (06:20) 2.6 0 0 2.6 0
28-03-2019 18.1 (11:50) 12.5 (00:00) 15.3 6.39 (12:50) 3.33 (12:50) 4.4 0 0 0.8 3.6
27-03-2019 19.3 (13:40) 14.5 (00:00) 16.9 7.78 (11:40) 4.44 (11:40) 0.2 0 0.2 0 0
26-03-2019 18.6 (13:50) 11.5 (00:00) 15.1 7.22 (14:10) 3.89 (11:30) 1.4 0 1.4 0 0
25-03-2019 19.2 (12:20) 11.9 (00:00) 15.6 7.22 (18:30) 3.89 (18:50) 5.4 0 0 5.4 0

Gráficas

Temp. máximas Temp. mínimas Temp. medias Precipitaciones Rachas de viento máximas Velocidades máximas media en intervalos de 10 minutos

Datos horarios

Fecha y hora oficial Temperatura (ºC) Velocidad del viento (km/h) Dirección del viento Racha (km/h) Dirección de racha Precipitación (mm) Presión (hPa) Tendencia (hPa) Humedad (%)
2019-04-23 23:00:00 15.5 12 Noroeste 30 Noroeste 0 -- -- 78
2019-04-23 22:00:00 15.5 15 Noroeste 31 Noroeste 0 -- -- 77
2019-04-23 21:00:00 15.6 14 Noroeste 39 Noroeste 0 -- -- 76
2019-04-23 20:00:00 15.9 18 Noroeste 32 Noroeste 0 -- -- 77
2019-04-23 19:00:00 16 16 Noroeste 32 Noroeste 0 -- -- 76
2019-04-23 18:00:00 16.1 15 Noroeste 38 Oeste 0.2 -- -- 76
2019-04-23 17:00:00 16 19 Noroeste 34 Noroeste 0 -- -- 81
2019-04-23 16:00:00 16.1 17 Noroeste 36 Oeste 0.2 -- -- 91
2019-04-23 15:00:00 16.5 17 Noroeste 35 Noroeste 0.6 -- -- 89
2019-04-23 14:00:00 18.3 22 Noroeste 40 Noroeste 0 -- -- 79
2019-04-23 13:00:00 20 20 Noroeste 37 Oeste 0 -- -- 61
2019-04-23 12:00:00 20.5 19 Noroeste 36 Noroeste 0 -- -- 56
2019-04-23 11:00:00 19.5 16 Oeste 40 Oeste 0 -- -- 60
2019-04-23 10:00:00 17.7 16 Noroeste 35 Oeste 0 -- -- 66
2019-04-23 09:00:00 16.4 19 Noroeste 32 Noroeste 0 -- -- 80
2019-04-23 08:00:00 16.2 15 Noroeste 34 Oeste 0 -- -- 82
2019-04-23 07:00:00 15.9 21 Noroeste 39 Oeste 0 -- -- 83
2019-04-23 06:00:00 15.8 22 Noroeste 37 Oeste 0 -- -- 82
2019-04-23 05:00:00 15.8 21 Noroeste 49 Oeste 0 -- -- 82
2019-04-23 04:00:00 16 24 Noroeste 44 Noroeste 0 -- -- 84
2019-04-23 03:00:00 16.3 23 Noroeste 44 Noroeste 0 -- -- 81
2019-04-23 02:00:00 16.3 22 Noroeste 47 Noroeste 0 -- -- 81
2019-04-23 01:00:00 16.3 21 Noroeste 40 Noroeste 0 -- -- 78
2019-04-23 00:00:00 16.4 21 Noroeste 42 Noroeste 0 -- -- 79
2019-04-22 23:00:00 16.4 21 Noroeste 41 Noroeste 0 -- -- 80
2019-04-22 22:00:00 16.4 15 Noroeste 33 Noroeste 0 -- -- 80
2019-04-22 21:00:00 16.6 18 Noroeste 48 Oeste 0 -- -- 82
2019-04-22 20:00:00 17 22 Noroeste 42 Oeste 0 -- -- 79
2019-04-22 19:00:00 17.6 21 Noroeste 45 Noroeste 0 -- -- 79
2019-04-22 18:00:00 18.6 20 Noroeste 43 Noroeste 0 -- -- 74
2019-04-22 17:00:00 19 23 Noroeste 46 Oeste 0 -- -- 69
2019-04-22 16:00:00 19.7 21 Noroeste 41 Noroeste 0 -- -- 67
2019-04-22 15:00:00 19.9 22 Noroeste 42 Noroeste 0 -- -- 67
2019-04-22 14:00:00 19.6 23 Noroeste 42 Noroeste 0 -- -- 66
2019-04-22 13:00:00 19.1 22 Noroeste 43 Noroeste 0 -- -- 66
2019-04-22 12:00:00 18.6 22 Noroeste 40 Oeste 0 -- -- 68
2019-04-22 11:00:00 17.7 20 Noroeste 37 Noroeste 0 -- -- 76
2019-04-22 10:00:00 17 21 Noroeste 41 Noroeste 0 -- -- 76
2019-04-22 09:00:00 16.1 20 Noroeste 40 Oeste 0 -- -- 81
2019-04-22 08:00:00 15.4 19 Noroeste 39 Noroeste 0 -- -- 82
2019-04-22 07:00:00 15.6 21 Noroeste 36 Oeste 0 -- -- 81
2019-04-22 06:00:00 15.7 19 Oeste 43 Oeste 0 -- -- 80
2019-04-22 05:00:00 15.4 21 Oeste 41 Oeste 0 -- -- 81
2019-04-22 04:00:00 15.5 18 Oeste 38 Oeste 0 -- -- 81
2019-04-22 03:00:00 15.6 19 Noroeste 35 Noroeste 0 -- -- 86
2019-04-22 02:00:00 15.8 17 Noroeste 35 Noroeste 0 -- -- 85
2019-04-22 01:00:00 15.8 16 Noroeste 30 Oeste 0 -- -- 84
2019-04-22 00:00:00 15.8 14 Noroeste 28 Noroeste 0 -- -- 86
2019-04-21 23:00:00 15.9 15 Noroeste 29 Oeste 0 -- -- 83
2019-04-21 22:00:00 16.2 13 Noroeste 27 Oeste 0 -- -- 84
2019-04-21 21:00:00 16.2 13 Noroeste 27 Noroeste 0 -- -- 84
2019-04-21 20:00:00 16.6 12 Noroeste 30 Norte 0 -- -- 81
2019-04-21 19:00:00 17.1 15 Noroeste 29 Noroeste 0 -- -- 80
2019-04-21 18:00:00 17.5 14 Noroeste 32 Noroeste 0 -- -- 74
2019-04-21 17:00:00 17.3 21 Noroeste 36 Noroeste 0 -- -- 78
2019-04-21 16:00:00 18.9 20 Noroeste 39 Noroeste 0 -- -- 69
2019-04-21 15:00:00 19.3 18 Noroeste 34 Noroeste 0 -- -- 66
2019-04-21 14:00:00 19.5 18 Noroeste 36 Noroeste 0 -- -- 65
2019-04-21 13:00:00 19.1 18 Noroeste 37 Noroeste 0 -- -- 65
2019-04-21 12:00:00 18.4 19 Noroeste 33 Noroeste 0 -- -- 66
2019-04-21 11:00:00 17.3 18 Noroeste 32 Noroeste 0 -- -- 75
2019-04-21 10:00:00 16.1 18 Noroeste 29 Noroeste 0 -- -- 81
2019-04-21 09:00:00 15.6 14 Noroeste 26 Noroeste 0.2 -- -- 86
2019-04-21 08:00:00 14.8 9 Noroeste 21 Noroeste 0 -- -- 86
2019-04-21 07:00:00 15 13 Noroeste 26 Noroeste 0 -- -- 83
2019-04-21 06:00:00 15.1 13 Noroeste 24 Noroeste 0 -- -- 84
2019-04-21 05:00:00 15.2 12 Noroeste 25 Noroeste 0 -- -- 84
2019-04-21 04:00:00 15.4 9 Noroeste 23 Noroeste 0 -- -- 86
2019-04-21 03:00:00 15.5 13 Noroeste 24 Noroeste 0 -- -- 82
2019-04-21 02:00:00 15.7 12 Noroeste 22 Noroeste 0 -- -- 86
2019-04-21 01:00:00 15.3 12 Noroeste 28 Noroeste 0 -- -- 85
2019-04-21 00:00:00 15.2 12 Noroeste 32 Noroeste 0.2 -- -- 89
2019-04-20 23:00:00 15.8 10 Noroeste 29 Noroeste 0 -- -- 83
2019-04-20 22:00:00 15.8 15 Noroeste 32 Noroeste 0 -- -- 80
2019-04-20 21:00:00 15.8 14 Noroeste 28 Noroeste 0 -- -- 82
2019-04-20 20:00:00 15.9 18 Noroeste 27 Noroeste 0 -- -- 76
2019-04-20 19:00:00 16.3 17 Noroeste 28 Noroeste 0 -- -- 74
2019-04-20 18:00:00 16.9 13 Noroeste 30 Oeste 0 -- -- 74
2019-04-20 17:00:00 16.6 15 Noroeste 37 Noroeste 0 -- -- 67
2019-04-20 16:00:00 17.5 18 Noroeste 34 Noroeste 0 -- -- 71
2019-04-20 15:00:00 17 14 Noroeste 32 Noroeste 0 -- -- 74
2019-04-20 14:00:00 16.3 13 Noroeste 25 Noroeste 0.2 -- -- 84
2019-04-20 13:00:00 14.6 14 Noroeste 26 Oeste 0.4 -- -- 90
2019-04-20 12:00:00 17 14 Noroeste 31 Noroeste 0 -- -- 71
2019-04-20 11:00:00 15.6 15 Noroeste 36 Noroeste 0 -- -- 79
2019-04-20 10:00:00 14.6 15 Noroeste 34 Oeste 0.2 -- -- 86
2019-04-20 09:00:00 14.1 15 Oeste 29 Noroeste 0 -- -- 85
2019-04-20 08:00:00 14.7 15 Noroeste 29 Noroeste 0 -- -- 84
2019-04-20 07:00:00 14.7 13 Noroeste 28 Noroeste 0 -- -- 81
2019-04-20 06:00:00 14.2 14 Noroeste 37 Noroeste 0 -- -- 84
2019-04-20 05:00:00 14.8 15 Noroeste 29 Noroeste 0 -- -- 76
2019-04-20 04:00:00 14.6 13 Noroeste 32 Oeste 0 -- -- 76
2019-04-20 03:00:00 14.8 15 Noroeste 33 Noroeste 0 -- -- 76
2019-04-20 02:00:00 15.2 19 Noroeste 37 Norte 0 -- -- 76
2019-04-20 01:00:00 15.1 17 Noroeste 37 Noroeste 0 -- -- 73
2019-04-20 00:00:00 15.1 23 Noroeste 39 Noroeste 0 -- -- 73
2019-04-19 23:00:00 15.1 22 Noroeste 39 Oeste 0 -- -- 71
2019-04-19 22:00:00 15.1 19 Noroeste 42 Noroeste 0 -- -- 72
2019-04-19 21:00:00 15.3 18 Noroeste 34 Noroeste 0 -- -- 72
2019-04-19 20:00:00 15.6 19 Noroeste 37 Noroeste 0 -- -- 70
2019-04-19 19:00:00 16.2 19 Noroeste 39 Noroeste 0 -- -- 68
2019-04-19 18:00:00 16.8 23 Noroeste 41 Noroeste 0 -- -- 68
2019-04-19 17:00:00 17.3 18 Noroeste 32 Noroeste 0 -- -- 68
2019-04-19 16:00:00 18 15 Noroeste 30 Noroeste 0 -- -- 64
2019-04-19 15:00:00 17.9 14 Noroeste 30 Noroeste 0 -- -- 66
2019-04-19 14:00:00 18.1 16 Noroeste 33 Noroeste 0 -- -- 66
2019-04-19 13:00:00 17.3 15 Noroeste 28 Noroeste 0 -- -- 70
2019-04-19 12:00:00 17.9 14 Noroeste 36 Noroeste 0 -- -- 59
2019-04-19 11:00:00 16.1 16 Noroeste 30 Noroeste 0 -- -- 70
2019-04-19 10:00:00 16.4 17 Noroeste 34 Noroeste 0 -- -- 64
2019-04-19 09:00:00 15.6 20 Noroeste 36 Norte 0 -- -- 69
2019-04-19 08:00:00 14.8 18 Noroeste 36 Noroeste 0 -- -- 72
2019-04-19 07:00:00 14.9 19 Noroeste 32 Noroeste 0 -- -- 73
2019-04-19 06:00:00 14.9 20 Noroeste 35 Noroeste 0 -- -- 75
2019-04-19 05:00:00 14.9 21 Noroeste 34 Noroeste 0 -- -- 78
2019-04-19 04:00:00 14.9 18 Noroeste 37 Noroeste 0 -- -- 70
2019-04-19 03:00:00 15.2 18 Noroeste 35 Norte 0 -- -- 76
2019-04-19 02:00:00 15.3 18 Noroeste 35 Noroeste 0 -- -- 72
2019-04-19 01:00:00 15.4 19 Noroeste 32 Noroeste 0 -- -- 75
2019-04-19 00:00:00 15.4 17 Noroeste 35 Noroeste 0 -- -- 76
2019-04-18 23:00:00 15.6 19 Noroeste 35 Noroeste 0 -- -- 72
2019-04-18 22:00:00 15.6 15 Noroeste 29 Noroeste 0 -- -- 71
2019-04-18 21:00:00 15.6 18 Noroeste 31 Noroeste 0 -- -- 72
2019-04-18 20:00:00 16 19 Noroeste 32 Noroeste 0 -- -- 70
2019-04-18 19:00:00 16.8 17 Noroeste 32 Noroeste 0 -- -- 69
2019-04-18 18:00:00 17.5 14 Noroeste 33 Noroeste 0 -- -- 66
2019-04-18 17:00:00 18 17 Noroeste 31 Noroeste 0 -- -- 63
2019-04-18 16:00:00 17.7 16 Noroeste 36 Norte 0 -- -- 66
2019-04-18 15:00:00 17.7 17 Noroeste 34 Noroeste 0 -- -- 64
2019-04-18 14:00:00 18.2 20 Noroeste 32 Noroeste 0 -- -- 64
2019-04-18 13:00:00 17.4 15 Norte 31 Noroeste 0 -- -- 68
2019-04-18 12:00:00 17.3 16 Noroeste 30 Noroeste 0 -- -- 72
2019-04-18 11:00:00 17.7 14 Noroeste 32 Noroeste 0 -- -- 67
2019-04-18 10:00:00 16.7 18 Noroeste 31 Noroeste 0 -- -- 72
2019-04-18 09:00:00 15.8 19 Noroeste 30 Noroeste 0 -- -- 73
2019-04-18 08:00:00 15.4 20 Noroeste 35 Noroeste 0 -- -- 78
2019-04-18 07:00:00 15.3 15 Noroeste 28 Noroeste 0 -- -- 78
2019-04-18 06:00:00 15.3 11 Noroeste 27 Noroeste 0 -- -- 78
2019-04-18 05:00:00 15.3 11 Noroeste 28 Noroeste 0 -- -- 77
2019-04-18 04:00:00 15.4 13 Noroeste 25 Oeste 0 -- -- 79
2019-04-18 03:00:00 15.6 13 Noroeste 27 Oeste 0 -- -- 76
2019-04-18 02:00:00 15.8 12 Noroeste 32 Noroeste 0 -- -- 78
2019-04-18 01:00:00 15.9 17 Noroeste 30 Noroeste 0 -- -- 76
2019-04-18 00:00:00 15.9 14 Noroeste 27 Noroeste 0 -- -- 80
2019-04-17 23:00:00 15.9 13 Noroeste 26 Noroeste 0 -- -- 83
2019-04-17 22:00:00 16 8 Oeste 22 Oeste 0 -- -- 79
2019-04-17 21:00:00 16.2 9 Oeste 26 Oeste 0 -- -- 79
2019-04-17 20:00:00 16.4 14 Noroeste 30 Oeste 0 -- -- 81
2019-04-17 19:00:00 16.9 17 Noroeste 33 Noroeste 0 -- -- 79
2019-04-17 18:00:00 16.6 14 Noroeste 33 Noroeste 0 -- -- 78
2019-04-17 17:00:00 16.6 17 Noroeste 28 Noroeste 0 -- -- 83
2019-04-17 16:00:00 16.3 13 Noroeste 26 Noroeste 0 -- -- 88
2019-04-17 15:00:00 16.7 18 Noroeste 30 Noroeste 0 -- -- 85
2019-04-17 14:00:00 19.5 14 Noroeste 30 Noroeste 0 -- -- 72
2019-04-17 13:00:00 20.8 10 Noroeste 32 Oeste 0 -- -- 60
2019-04-17 12:00:00 21 7 Nordeste 18 Noroeste 0 -- -- 59
2019-04-17 11:00:00 19.3 8 Noroeste 15 Noroeste 0 -- -- 66
2019-04-17 10:00:00 18.2 7 Noroeste 12 Norte 0 -- -- 69
2019-04-17 09:00:00 15.9 3 Oeste 10 Sur 0 -- -- 80
2019-04-17 08:00:00 14.6 6 Sur 10 Oeste 0 -- -- 80
2019-04-17 07:00:00 15.4 5 Oeste 13 Noroeste 0 -- -- 84
2019-04-17 06:00:00 15.6 6 Noroeste 19 Oeste 0 -- -- 83
2019-04-17 05:00:00 16.1 9 Noroeste 23 Noroeste 0 -- -- 81
2019-04-17 04:00:00 16.3 12 Noroeste 19 Noroeste 0 -- -- 84
2019-04-17 03:00:00 16.2 7 Noroeste 16 Noroeste 0 -- -- 81
2019-04-17 02:00:00 16.2 9 Noroeste 19 Noroeste 0 -- -- 80
2019-04-17 01:00:00 16.5 10 Noroeste 24 Noroeste 0 -- -- 81
2019-04-17 00:00:00 16.9 13 Noroeste 24 Noroeste 0 -- -- 84
2019-04-16 23:00:00 17.1 13 Noroeste 28 Oeste 0 -- -- 83
2019-04-16 22:00:00 16.8 15 Noroeste 27 Oeste 0 -- -- 81
2019-04-16 21:00:00 17.1 10 Noroeste 20 Oeste 0 -- -- 79
2019-04-16 20:00:00 18.5 6 Noroeste 18 Noroeste 0 -- -- 72
2019-04-16 19:00:00 20.1 7 Noroeste 15 Noroeste 0 -- -- 67
2019-04-16 18:00:00 20.7 5 Norte 14 Oeste 0 -- -- 67
2019-04-16 17:00:00 20 8 Noroeste 18 Norte 0 -- -- 71
2019-04-16 16:00:00 20.3 10 Norte 23 Noroeste 0 -- -- 69
2019-04-16 15:00:00 20.7 6 Nordeste 18 Este 0 -- -- 68
2019-04-16 14:00:00 19.7 11 Este 24 Este 0 -- -- 72
2019-04-16 13:00:00 19.4 12 Este 21 Sudeste 0 -- -- 67
2019-04-16 12:00:00 19.3 8 Este 18 Nordeste 0 -- -- 70
2019-04-16 11:00:00 17.5 3 Norte 8 Norte 0 -- -- 80
2019-04-16 10:00:00 16.7 4 Noroeste 12 Noroeste 0 -- -- 81
2019-04-16 09:00:00 16.4 5 Noroeste 9 Noroeste 0 -- -- 84
2019-04-16 08:00:00 15.8 2 Norte 8 Noroeste 0 -- -- 88
2019-04-16 07:00:00 15.8 3 Norte 12 Norte 0 -- -- 88
2019-04-16 06:00:00 15.9 4 Norte 13 Nordeste 0 -- -- 89
2019-04-16 05:00:00 16.1 4 Norte 13 Nordeste 0 -- -- 90
2019-04-16 04:00:00 16.1 2 Norte 8 Este 0 -- -- 88
2019-04-16 03:00:00 16.2 4 Nordeste 8 Norte 0 -- -- 89
2019-04-16 02:00:00 16.3 3 Este 8 Nordeste 0 -- -- 88
2019-04-16 01:00:00 16.3 0 Calma 6 Oeste 0 -- -- 84
2019-04-16 00:00:00 15.7 4 Sudoeste 9 Sudoeste 0 -- -- 82
2019-04-15 23:00:00 16 4 Sudoeste 9 Sudoeste 0 -- -- 82
2019-04-15 22:00:00 16.5 4 Noroeste 9 Noroeste 0 -- -- 82
2019-04-15 21:00:00 17 5 Noroeste 12 Noroeste 0 -- -- 81
2019-04-15 20:00:00 18.1 7 Noroeste 16 Nordeste 0 -- -- 74
2019-04-15 19:00:00 19.4 9 Este 19 Este 0 -- -- 66
2019-04-15 18:00:00 19.9 11 Nordeste 19 Nordeste 0 -- -- 63
2019-04-15 17:00:00 21 9 Nordeste 22 Nordeste 0 -- -- 59
2019-04-15 16:00:00 20.6 7 Este 23 Este 0 -- -- 60
2019-04-15 15:00:00 20.9 8 Nordeste 25 Nordeste 0 -- -- 61
2019-04-15 14:00:00 20.6 12 Nordeste 22 Este 0 -- -- 63
2019-04-15 13:00:00 20.5 9 Nordeste 26 Este 0 -- -- 61
2019-04-15 12:00:00 20.5 11 Nordeste 24 Nordeste 0 -- -- 60
2019-04-15 11:00:00 19.5 6 Noroeste 17 Noroeste 0 -- -- 65
2019-04-15 10:00:00 17.8 9 Noroeste 20 Noroeste 0 -- -- 72
2019-04-15 09:00:00 16.5 13 Noroeste 25 Noroeste 0 -- -- 79
2019-04-15 08:00:00 16.1 11 Noroeste 25 Noroeste 0 -- -- 77
2019-04-15 07:00:00 15.7 13 Noroeste 26 Noroeste 0 -- -- 77
2019-04-15 06:00:00 15.8 17 Noroeste 30 Noroeste 0 -- -- 75
2019-04-15 05:00:00 15.8 14 Noroeste 25 Noroeste 0 -- -- 77
2019-04-15 04:00:00 15.5 14 Noroeste 32 Noroeste 0 -- -- 82
2019-04-15 03:00:00 15.6 19 Noroeste 31 Oeste 0 -- -- 81
2019-04-15 02:00:00 15.6 16 Noroeste 27 Oeste 0 -- -- 81
2019-04-15 01:00:00 15.7 10 Noroeste 26 Oeste 0 -- -- 83
2019-04-15 00:00:00 15.9 12 Noroeste 29 Noroeste 0 -- -- 83
2019-04-14 23:00:00 16.5 15 Noroeste 28 Oeste 0 -- -- 82
2019-04-14 22:00:00 16.4 12 Noroeste 23 Norte 0 -- -- 81
2019-04-14 21:00:00 16.6 13 Noroeste 30 Noroeste 0 -- -- 82
2019-04-14 20:00:00 17.1 14 Noroeste 31 Noroeste 0 -- -- 79
2019-04-14 19:00:00 18.1 17 Noroeste 28 Noroeste 0 -- -- 76
2019-04-14 18:00:00 19.1 16 Noroeste 33 Noroeste 0 -- -- 69
2019-04-14 17:00:00 19.2 17 Noroeste 28 Noroeste 0 -- -- 72
2019-04-14 16:00:00 19.5 14 Noroeste 27 Noroeste 0 -- -- 73
2019-04-14 15:00:00 20 13 Noroeste 23 Noroeste 0 -- -- 70
2019-04-14 14:00:00 19.7 13 Noroeste 22 Noroeste 0 -- -- 70
2019-04-14 13:00:00 19.6 12 Noroeste 24 Noroeste 0 -- -- 70
2019-04-14 12:00:00 19.4 8 Noroeste 21 Noroeste 0 -- -- 69
2019-04-14 11:00:00 18.4 6 Norte 18 Norte 0 -- -- 72
2019-04-14 10:00:00 16.9 4 Norte 10 Norte 0 -- -- 77
2019-04-14 09:00:00 14.9 4 Norte 9 Oeste 0 -- -- 84
2019-04-14 08:00:00 12.7 5 Oeste 12 Oeste 0 -- -- 83
2019-04-14 07:00:00 12.8 6 Sudoeste 15 Sudoeste 0 -- -- 83
2019-04-14 06:00:00 13.4 5 Oeste 14 Oeste 0 -- -- 83
2019-04-14 05:00:00 13.5 6 Oeste 15 Oeste 0 -- -- 85
2019-04-14 04:00:00 13.6 4 Oeste 13 Oeste 0 -- -- 85
2019-04-14 03:00:00 14.3 8 Oeste 13 Oeste 0 -- -- 85
2019-04-14 02:00:00 14.6 6 Oeste 14 Oeste 0 -- -- 84
2019-04-14 01:00:00 15.1 8 Noroeste 15 Oeste 0 -- -- 85
2019-04-14 00:00:00 15.2 7 Noroeste 15 Noroeste 0 -- -- 84
2019-04-13 23:00:00 15.5 8 Noroeste 19 Noroeste 0 -- -- 82
2019-04-13 22:00:00 15.6 10 Noroeste 23 Noroeste 0 -- -- 83
2019-04-13 21:00:00 15.7 14 Noroeste 23 Noroeste 0 -- -- 82
2019-04-13 20:00:00 16.3 13 Noroeste 26 Noroeste 0 -- -- 78
2019-04-13 19:00:00 17.6 12 Noroeste 26 Noroeste 0 -- -- 71
2019-04-13 18:00:00 18.1 14 Noroeste 26 Noroeste 0 -- -- 69
2019-04-13 17:00:00 19.2 10 Noroeste 23 Norte 0 -- -- 64
2019-04-13 16:00:00 19.2 12 Norte 23 Noroeste 0 -- -- 58
2019-04-13 15:00:00 19.4 13 Noroeste 25 Noroeste 0 -- -- 63
2019-04-13 14:00:00 18.2 13 Noroeste 27 Noroeste 0 -- -- 64
2019-04-13 13:00:00 17.8 12 Noroeste 30 Noroeste 0 -- -- 68
2019-04-13 12:00:00 17.7 14 Norte 23 Norte 0 -- -- 71
2019-04-13 11:00:00 17 14 Noroeste 24 Noroeste 0 -- -- 74
2019-04-13 10:00:00 16.1 10 Noroeste 21 Noroeste 0 -- -- 77
2019-04-13 09:00:00 15.6 10 Noroeste 16 Noroeste 0 -- -- 77
2019-04-13 08:00:00 15.1 7 Noroeste 18 Noroeste 0 -- -- 78
2019-04-13 07:00:00 15.3 9 Noroeste 23 Norte 0 -- -- 76
2019-04-13 06:00:00 15.3 10 Noroeste 23 Norte 0 -- -- 73
2019-04-13 05:00:00 15.4 13 Noroeste 24 Norte 0 -- -- 70
2019-04-13 04:00:00 15.3 12 Noroeste 22 Noroeste 0 -- -- 79
2019-04-13 03:00:00 15.3 9 Noroeste 23 Noroeste 0 -- -- 76
2019-04-13 02:00:00 15.2 9 Noroeste 21 Noroeste 0 -- -- 76
2019-04-13 01:00:00 15.3 12 Noroeste 23 Noroeste 0 -- -- 74
2019-04-13 00:00:00 15.2 14 Noroeste 24 Noroeste 0 -- -- 75
2019-04-12 23:00:00 15.5 10 Noroeste 25 Noroeste 0 -- -- 73
2019-04-12 22:00:00 15.3 13 Noroeste 23 Noroeste 0 -- -- 70
2019-04-12 21:00:00 15.5 13 Noroeste 31 Noroeste 0 -- -- 71
2019-04-12 20:00:00 15.7 13 Noroeste 24 Noroeste 0 -- -- 72
2019-04-12 19:00:00 16.4 15 Noroeste 33 Noroeste 0 -- -- 71
2019-04-12 18:00:00 17 13 Noroeste 29 Noroeste 0 -- -- 65
2019-04-12 17:00:00 18 15 Noroeste 29 Noroeste 0 -- -- 61
2019-04-12 16:00:00 18.5 16 Noroeste 29 Noroeste 0 -- -- 58
2019-04-12 15:00:00 17.8 15 Noroeste 32 Noroeste 0 -- -- 62
2019-04-12 14:00:00 18.2 16 Noroeste 30 Noroeste 0 -- -- 59
2019-04-12 13:00:00 18.1 14 Norte 30 Noroeste 0 -- -- 62
2019-04-12 12:00:00 16.5 12 Norte 27 Nordeste 0 -- -- 68
2019-04-12 11:00:00 15.5 9 Noroeste 24 Noroeste 0 -- -- 83
2019-04-12 10:00:00 15.6 13 Noroeste 30 Noroeste 0 -- -- 74
2019-04-12 09:00:00 15.3 15 Noroeste 28 Noroeste 0 -- -- 75
2019-04-12 08:00:00 14.9 11 Noroeste 23 Noroeste 0 -- -- 73
2019-04-12 07:00:00 14.7 11 Noroeste 28 Noroeste 0 -- -- 69
2019-04-12 06:00:00 14.9 13 Noroeste 22 Noroeste 0 -- -- 71
2019-04-12 05:00:00 15 12 Noroeste 24 Noroeste 0 -- -- 74
2019-04-12 04:00:00 14.9 8 Noroeste 24 Norte 0 -- -- 70
2019-04-12 03:00:00 15 15 Noroeste 28 Noroeste 0 -- -- 72
2019-04-12 02:00:00 15.1 16 Noroeste 33 Noroeste 0 -- -- 73
2019-04-12 01:00:00 15.2 17 Noroeste 29 Noroeste 0 -- -- 68
2019-04-12 00:00:00 15.2 16 Noroeste 31 Noroeste 0 -- -- 70
2019-04-11 23:00:00 15.5 16 Noroeste 38 Noroeste 0 -- -- 72
2019-04-11 22:00:00 15.5 14 Noroeste 32 Noroeste 0 -- -- 72
2019-04-11 21:00:00 15.4 15 Noroeste 26 Noroeste 0 -- -- 74
2019-04-11 20:00:00 15.9 16 Noroeste 29 Noroeste 0 -- -- 72
2019-04-11 19:00:00 16.2 19 Noroeste 34 Noroeste 0 -- -- 66
2019-04-11 18:00:00 16.5 17 Noroeste 32 Noroeste 0 -- -- 69
2019-04-11 17:00:00 16.9 17 Noroeste 32 Noroeste 0 -- -- 68
2019-04-11 16:00:00 16.6 19 Noroeste 31 Noroeste 0 -- -- 73
2019-04-11 15:00:00 17.7 15 Noroeste 31 Noroeste 0 -- -- 64
2019-04-11 14:00:00 17.1 14 Noroeste 27 Noroeste 0 -- -- 68
2019-04-11 13:00:00 17.7 12 Noroeste 26 Noroeste 0 -- -- 58
2019-04-11 12:00:00 16.1 15 Noroeste 28 Noroeste 0 -- -- 66
2019-04-11 11:00:00 15.9 13 Noroeste 26 Norte 0 -- -- 65
2019-04-11 10:00:00 15.3 13 Noroeste 24 Noroeste 0 -- -- 68
2019-04-11 09:00:00 14.9 13 Noroeste 26 Noroeste 0 -- -- 67
2019-04-11 08:00:00 14.7 14 Noroeste 31 Norte 0 -- -- 69
2019-04-11 07:00:00 14.8 13 Noroeste 24 Norte 0 -- -- 68
2019-04-11 06:00:00 14.9 12 Noroeste 27 Noroeste 0 -- -- 70
2019-04-11 05:00:00 14.9 13 Noroeste 24 Norte 0 -- -- 73
2019-04-11 04:00:00 15 15 Noroeste 26 Noroeste 0 -- -- 73
2019-04-11 03:00:00 14.8 10 Noroeste 26 Noroeste 0 -- -- 72
2019-04-11 02:00:00 14.9 14 Noroeste 27 Noroeste 0 -- -- 71
2019-04-11 01:00:00 15 13 Noroeste 20 Noroeste 0 -- -- 71
2019-04-11 00:00:00 15.1 13 Noroeste 25 Noroeste 0 -- -- 69
2019-04-10 23:00:00 15.2 13 Noroeste 26 Noroeste 0 -- -- 70
2019-04-10 22:00:00 15.2 14 Noroeste 28 Noroeste 0 -- -- 77
2019-04-10 21:00:00 15.3 13 Noroeste 29 Noroeste 0 -- -- 73
2019-04-10 20:00:00 15.7 14 Noroeste 30 Noroeste 0 -- -- 71
2019-04-10 19:00:00 16.3 15 Noroeste 32 Noroeste 0 -- -- 72
2019-04-10 18:00:00 16.8 17 Noroeste 37 Noroeste 0 -- -- 70
2019-04-10 17:00:00 17.4 14 Noroeste 31 Noroeste 0 -- -- 68
2019-04-10 16:00:00 18.3 16 Noroeste 34 Norte 0 -- -- 61
2019-04-10 15:00:00 18.1 16 Noroeste 30 Noroeste 0 -- -- 63
2019-04-10 14:00:00 16.7 14 Noroeste 28 Noroeste 0 -- -- 69
2019-04-10 13:00:00 18.4 15 Noroeste 28 Noroeste 0 -- -- 56
2019-04-10 12:00:00 16.6 12 Noroeste 23 Noroeste 0 -- -- 63
2019-04-10 11:00:00 16.1 13 Noroeste 24 Noroeste 0.2 -- -- 67
2019-04-10 10:00:00 16.5 10 Norte 31 Norte 0 -- -- 59
2019-04-10 09:00:00 15.3 11 Norte 25 Noroeste 0 -- -- 70
2019-04-10 08:00:00 14.7 7 Noroeste 26 Norte 0 -- -- 70
2019-04-10 07:00:00 14.4 9 Noroeste 19 Noroeste 0 -- -- 77
2019-04-10 06:00:00 14.4 9 Noroeste 21 Noroeste 0 -- -- 68
2019-04-10 05:00:00 14.2 6 Noroeste 21 Norte 0 -- -- 71
2019-04-10 04:00:00 14.4 8 Noroeste 22 Norte 0 -- -- 70
2019-04-10 03:00:00 14.6 9 Noroeste 23 Norte 0 -- -- 73
2019-04-10 02:00:00 14.4 8 Noroeste 20 Noroeste 0 -- -- 76
2019-04-10 01:00:00 15 13 Noroeste 23 Noroeste 0 -- -- 72
2019-04-10 00:00:00 14.8 8 Noroeste 26 Noroeste 0 -- -- 73
2019-04-09 23:00:00 15 11 Noroeste 19 Noroeste 0 -- -- 73
2019-04-09 22:00:00 15.1 12 Noroeste 23 Noroeste 0 -- -- 75
2019-04-09 21:00:00 15.1 10 Noroeste 22 Oeste 0 -- -- 76
2019-04-09 20:00:00 15.3 13 Noroeste 24 Noroeste 0 -- -- 78
2019-04-09 19:00:00 15.7 10 Norte 24 Norte 0 -- -- 81
2019-04-09 18:00:00 16.1 13 Noroeste 25 Noroeste 0 -- -- 82
2019-04-09 17:00:00 15.8 7 Norte 20 Norte 0.4 -- -- 87
2019-04-09 16:00:00 16.2 7 Noroeste 23 Nordeste 0.8 -- -- 89
2019-04-09 15:00:00 17.9 7 Norte 23 Nordeste 0 -- -- 70
2019-04-09 14:00:00 17.6 10 Norte 24 Noroeste 0 -- -- 76
2019-04-09 13:00:00 17.2 12 Norte 26 Noroeste 0 -- -- 82
2019-04-09 12:00:00 17.5 11 Noroeste 22 Noroeste 0 -- -- 77
2019-04-09 11:00:00 18.2 9 Noroeste 19 Sudoeste 0 -- -- 68
2019-04-09 10:00:00 16.5 5 Oeste 12 Sudoeste 0 -- -- 74
2019-04-09 09:00:00 15 4 Oeste 9 Oeste 0 -- -- 83
2019-04-09 08:00:00 14.5 4 Sudoeste 10 Sudoeste 0 -- -- 80
2019-04-09 07:00:00 14.4 3 Sudoeste 11 Sur 0 -- -- 78
2019-04-09 06:00:00 14.6 3 Sudoeste 9 Oeste 0 -- -- 82
2019-04-09 05:00:00 14.3 6 Oeste 14 Oeste 0 -- -- 82
2019-04-09 04:00:00 14.2 4 Oeste 12 Oeste 0 -- -- 80
2019-04-09 03:00:00 14.2 5 Oeste 14 Oeste 0 -- -- 79
2019-04-09 02:00:00 14.3 8 Oeste 19 Oeste 0 -- -- 77
2019-04-09 01:00:00 14.4 9 Oeste 19 Oeste 0 -- -- 76
2019-04-09 00:00:00 14.7 7 Noroeste 20 Noroeste 0 -- -- 75
2019-04-08 23:00:00 15.5 11 Noroeste 23 Noroeste 0 -- -- 72
2019-04-08 22:00:00 15.8 13 Noroeste 22 Noroeste 0 -- -- 72
2019-04-08 21:00:00 15.9 10 Noroeste 22 Noroeste 0 -- -- 74
2019-04-08 20:00:00 16.2 13 Noroeste 23 Noroeste 0 -- -- 73
2019-04-08 19:00:00 16.9 12 Noroeste 25 Norte 0 -- -- 72
2019-04-08 18:00:00 17.1 15 Noroeste 27 Noroeste 0 -- -- 72
2019-04-08 17:00:00 18.1 12 Norte 24 Noroeste 0 -- -- 66
2019-04-08 16:00:00 18.1 15 Noroeste 28 Noroeste 0 -- -- 71
2019-04-08 15:00:00 18 15 Noroeste 28 Norte 0 -- -- 70
2019-04-08 14:00:00 17.9 17 Noroeste 29 Noroeste 0 -- -- 68
2019-04-08 13:00:00 18.1 13 Noroeste 23 Noroeste 0 -- -- 71
2019-04-08 12:00:00 17.8 7 Noroeste 21 Noroeste 0 -- -- 72
2019-04-08 11:00:00 16.7 10 Noroeste 20 Oeste 0.2 -- -- 74
2019-04-08 10:00:00 14.9 7 Noroeste 20 Norte 0 -- -- 91
2019-04-08 09:00:00 14.4 9 Norte 23 Noroeste 0.2 -- -- 93
2019-04-08 08:00:00 14.8 6 Noroeste 12 Noroeste 0 -- -- 87
2019-04-08 07:00:00 14.7 6 Noroeste 19 Noroeste 0 -- -- 89
2019-04-08 06:00:00 14.9 7 Noroeste 15 Oeste 0 -- -- 89
2019-04-08 05:00:00 15 6 Noroeste 13 Noroeste 0 -- -- 88
2019-04-08 04:00:00 15.1 5 Noroeste 14 Noroeste 0 -- -- 89
2019-04-08 03:00:00 14.8 6 Noroeste 13 Noroeste 0.2 -- -- 91
2019-04-08 02:00:00 14.6 6 Oeste 16 Oeste 0 -- -- 90
2019-04-08 01:00:00 15 4 Noroeste 15 Oeste 0 -- -- 83
2019-04-08 00:00:00 14.9 7 Oeste 14 Oeste 0 -- -- 83
2019-04-07 23:00:00 15.3 6 Noroeste 15 Noroeste 0 -- -- 83
2019-04-07 22:00:00 15.5 9 Noroeste 17 Noroeste 0 -- -- 82
2019-04-07 21:00:00 15.7 12 Noroeste 19 Norte 0 -- -- 82
2019-04-07 20:00:00 16.3 12 Noroeste 23 Noroeste 0 -- -- 78
2019-04-07 19:00:00 17 13 Noroeste 27 Noroeste 0 -- -- 75
2019-04-07 18:00:00 18 15 Noroeste 28 Noroeste 0 -- -- 72
2019-04-07 17:00:00 18.5 15 Noroeste 29 Noroeste 0 -- -- 69
2019-04-07 16:00:00 18.7 15 Noroeste 28 Noroeste 0 -- -- 68
2019-04-07 15:00:00 18.8 17 Noroeste 31 Noroeste 0 -- -- 67
2019-04-07 14:00:00 19 16 Noroeste 35 Noroeste 0 -- -- 66
2019-04-07 13:00:00 18.6 10 Noroeste 28 Noroeste 0 -- -- 64
2019-04-07 12:00:00 17.9 11 Noroeste 24 Noroeste 0 -- -- 66
2019-04-07 11:00:00 17.3 14 Noroeste 22 Noroeste 0 -- -- 66
2019-04-07 10:00:00 16 9 Oeste 19 Noroeste 0 -- -- 74
2019-04-07 09:00:00 14 6 Oeste 10 Oeste 0 -- -- 78
2019-04-07 08:00:00 12.3 2 Sur 9 Sudoeste 0 -- -- 78
2019-04-07 07:00:00 12.4 3 Sur 9 Sur 0 -- -- 83
2019-04-07 06:00:00 12.4 3 Sudoeste 8 Oeste 0 -- -- 83
2019-04-07 05:00:00 12.8 2 Sur 8 Sudoeste 0 -- -- 82
2019-04-07 04:00:00 13.4 0 Calma 8 Oeste 0 -- -- 80
2019-04-07 03:00:00 13.7 6 Oeste 13 Oeste 0 -- -- 80
2019-04-07 02:00:00 13.8 4 Oeste 12 Oeste 0 -- -- 80
2019-04-07 01:00:00 14 4 Oeste 15 Noroeste 0 -- -- 80
2019-04-07 00:00:00 14.4 6 Noroeste 12 Oeste 0 -- -- 78
2019-04-06 23:00:00 14.7 8 Noroeste 22 Norte 0 -- -- 76
2019-04-06 22:00:00 14.8 11 Noroeste 28 Noroeste 0 -- -- 74
2019-04-06 21:00:00 15 14 Noroeste 29 Noroeste 0 -- -- 73
2019-04-06 20:00:00 15.5 17 Noroeste 31 Noroeste 0 -- -- 74
2019-04-06 19:00:00 15.8 21 Noroeste 35 Noroeste 0 -- -- 66
2019-04-06 18:00:00 16.1 20 Noroeste 35 Noroeste 0 -- -- 61
2019-04-06 17:00:00 17.4 19 Noroeste 32 Noroeste 0 -- -- 61
2019-04-06 16:00:00 16.9 20 Noroeste 39 Noroeste 0 -- -- 63
2019-04-06 15:00:00 18 20 Noroeste 42 Norte 0 -- -- 64
2019-04-06 14:00:00 17.4 19 Noroeste 42 Noroeste 0 -- -- 65
2019-04-06 13:00:00 16.8 25 Noroeste 42 Noroeste 0 -- -- 65
2019-04-06 12:00:00 16.7 18 Noroeste 37 Noroeste 0 -- -- 65
2019-04-06 11:00:00 15.8 22 Noroeste 35 Oeste 0 -- -- 73
2019-04-06 10:00:00 15.8 17 Noroeste 34 Noroeste 0 -- -- 68
2019-04-06 09:00:00 14.9 19 Noroeste 36 Noroeste 0 -- -- 71
2019-04-06 08:00:00 14.4 16 Noroeste 33 Noroeste 0 -- -- 76
2019-04-06 07:00:00 14.1 18 Noroeste 33 Noroeste 0 -- -- 80
2019-04-06 06:00:00 14.2 13 Noroeste 34 Noroeste 0 -- -- 69
2019-04-06 05:00:00 14.3 17 Noroeste 36 Noroeste 0 -- -- 68
2019-04-06 04:00:00 14.6 19 Noroeste 40 Noroeste 0 -- -- 75
2019-04-06 03:00:00 14.5 24 Noroeste 41 Noroeste 0 -- -- 76
2019-04-06 02:00:00 14.9 24 Noroeste 39 Noroeste 0 -- -- 71
2019-04-06 01:00:00 15 22 Noroeste 39 Noroeste 0 -- -- 74
2019-04-06 00:00:00 15.1 19 Noroeste 36 Noroeste 0 -- -- 77
2019-04-05 23:00:00 15 18 Noroeste 42 Noroeste 0 -- -- 71
2019-04-05 22:00:00 15.3 22 Noroeste 43 Noroeste 0 -- -- 74
2019-04-05 21:00:00 15.4 21 Noroeste 43 Noroeste 0 -- -- 73
2019-04-05 20:00:00 15.7 24 Noroeste 43 Noroeste 0 -- -- 73
2019-04-05 19:00:00 15.9 22 Noroeste 40 Noroeste 0 -- -- 79
2019-04-05 18:00:00 15.9 20 Noroeste 41 Noroeste 0 -- -- 78
2019-04-05 17:00:00 16.1 24 Noroeste 43 Noroeste 0 -- -- 83
2019-04-05 16:00:00 18.5 22 Noroeste 40 Noroeste 0 -- -- 63
2019-04-05 15:00:00 18.2 21 Noroeste 38 Noroeste 0 -- -- 65
2019-04-05 14:00:00 18 19 Noroeste 41 Noroeste 0.2 -- -- 63
2019-04-05 13:00:00 17.5 19 Noroeste 37 Oeste 0 -- -- 70
2019-04-05 12:00:00 16.6 18 Noroeste 35 Noroeste 0 -- -- 70
2019-04-05 11:00:00 16.1 13 Oeste 34 Oeste 0 -- -- 75
2019-04-05 10:00:00 15.3 15 Noroeste 30 Noroeste 0 -- -- 75
2019-04-05 09:00:00 14.5 10 Noroeste 24 Noroeste 0 -- -- 79
2019-04-05 08:00:00 14.1 14 Noroeste 27 Noroeste 0 -- -- 84
2019-04-05 07:00:00 13.7 9 Oeste 27 Oeste 0 -- -- 83
2019-04-05 06:00:00 13.6 13 Oeste 26 Oeste 0 -- -- 85
2019-04-05 05:00:00 13.2 10 Oeste 23 Oeste 0 -- -- 85
2019-04-05 04:00:00 12.9 14 Noroeste 37 Noroeste 0.4 -- -- 90
2019-04-05 03:00:00 13.5 9 Oeste 31 Noroeste 0 -- -- 88
2019-04-05 02:00:00 14.2 15 Noroeste 28 Noroeste 0 -- -- 85
2019-04-05 01:00:00 14.1 9 Oeste 21 Oeste 0 -- -- 84
2019-04-05 00:00:00 14.6 14 Noroeste 29 Noroeste 0 -- -- 83
2019-04-04 23:00:00 14.8 12 Noroeste 28 Noroeste 0 -- -- 78
2019-04-04 22:00:00 14.8 13 Noroeste 31 Oeste 0 -- -- 78
2019-04-04 21:00:00 14.8 13 Noroeste 29 Noroeste 0 -- -- 80
2019-04-04 20:00:00 15.3 12 Noroeste 28 Noroeste 0 -- -- 79
2019-04-04 19:00:00 15.7 14 Noroeste 37 Noroeste 0 -- -- 77
2019-04-04 18:00:00 16.2 14 Noroeste 28 Noroeste 0 -- -- 77
2019-04-04 17:00:00 16.2 20 Noroeste 38 Oeste 0 -- -- 74
2019-04-04 16:00:00 17 17 Noroeste 33 Noroeste 0 -- -- 75
2019-04-04 15:00:00 16.3 20 Noroeste 34 Noroeste 0 -- -- 76
2019-04-04 14:00:00 17.2 17 Noroeste 31 Noroeste 0 -- -- 74
2019-04-04 13:00:00 16.4 14 Noroeste 29 Noroeste 0 -- -- 79
2019-04-04 12:00:00 15.7 13 Noroeste 28 Noroeste 0.2 -- -- 86
2019-04-04 11:00:00 15.6 14 Noroeste 28 Oeste 0 -- -- 82
2019-04-04 10:00:00 13.7 6 Oeste 14 Oeste 0 -- -- 87
2019-04-04 09:00:00 13.1 6 Noroeste 18 Noroeste 0 -- -- 90
2019-04-04 08:00:00 12.5 9 Oeste 17 Oeste 0.4 -- -- 91
2019-04-04 07:00:00 12.4 6 Sudoeste 12 Sudoeste 0.6 -- -- 92
2019-04-04 06:00:00 12.5 6 Sudoeste 10 Sudoeste 0 -- -- 92
2019-04-04 05:00:00 12.2 4 Sudoeste 9 Sudoeste 0 -- -- 90
2019-04-04 04:00:00 12.9 4 Oeste 17 Oeste 0.2 -- -- 92
2019-04-04 03:00:00 13.5 6 Oeste 20 Oeste 7.2 -- -- 92
2019-04-04 02:00:00 14.1 5 Oeste 16 Oeste 0.2 -- -- 89
2019-04-04 01:00:00 14.4 8 Noroeste 26 Oeste 0.4 -- -- 87
2019-04-04 00:00:00 14.5 10 Noroeste 25 Oeste 2.2 -- -- 89
2019-04-03 23:00:00 15.1 9 Noroeste 19 Noroeste 0 -- -- 83
2019-04-03 22:00:00 15.2 8 Noroeste 21 Oeste 0 -- -- 82
2019-04-03 21:00:00 15.7 8 Noroeste 17 Noroeste 0 -- -- 75
2019-04-03 20:00:00 16.7 5 Noroeste 17 Noroeste 0 -- -- 70
2019-04-03 19:00:00 16.8 8 Noroeste 19 Noroeste 0 -- -- 72
2019-04-03 18:00:00 16.7 15 Noroeste 22 Noroeste 0 -- -- 74
2019-04-03 17:00:00 17.7 11 Noroeste 26 Noroeste 0.2 -- -- 71
2019-04-03 16:00:00 16.5 13 Noroeste 22 Noroeste 0 -- -- 76
2019-04-03 15:00:00 16 14 Noroeste 23 Noroeste 0 -- -- 80
2019-04-03 14:00:00 15.6 9 Norte 18 Norte 1.4 -- -- 87
2019-04-03 13:00:00 14.4 10 Noroeste 27 Noroeste 1.8 -- -- 90
2019-04-03 12:00:00 15.7 8 Noroeste 19 Noroeste 1.6 -- -- 92
2019-04-03 11:00:00 16.1 9 Norte 23 Norte 1.4 -- -- 87
2019-04-03 10:00:00 15.8 7 Noroeste 15 Noroeste 0 -- -- 89
2019-04-03 09:00:00 14.7 4 Noroeste 10 Noroeste 0 -- -- 91
2019-04-03 08:00:00 13.9 3 Oeste 7 Sur 0 -- -- 90
2019-04-03 07:00:00 14.1 3 Sudoeste 10 Norte 0 -- -- 90
2019-04-03 06:00:00 13.8 4 Oeste 12 Sudoeste 0 -- -- 89
2019-04-03 05:00:00 14.4 6 Oeste 17 Oeste 0 -- -- 94
2019-04-03 04:00:00 14.6 6 Noroeste 13 Oeste 0 -- -- 94
2019-04-03 03:00:00 14.8 8 Oeste 15 Oeste 0 -- -- 90
2019-04-03 02:00:00 14.9 5 Oeste 13 Oeste 0 -- -- 90
2019-04-03 01:00:00 15.3 4 Noroeste 10 Noroeste 0 -- -- 92
2019-04-03 00:00:00 15.4 6 Noroeste 15 Noroeste 0 -- -- 92
2019-04-02 23:00:00 15.6 8 Noroeste 16 Noroeste 0 -- -- 90
2019-04-02 22:00:00 15.7 8 Noroeste 20 Noroeste 0 -- -- 88
2019-04-02 21:00:00 15.8 10 Noroeste 20 Noroeste 0 -- -- 87
2019-04-02 20:00:00 16.1 13 Noroeste 26 Oeste 0 -- -- 84
2019-04-02 19:00:00 16.2 13 Noroeste 27 Noroeste 0 -- -- 84
2019-04-02 18:00:00 16.8 14 Noroeste 30 Noroeste 0 -- -- 83
2019-04-02 17:00:00 18.2 14 Noroeste 26 Noroeste 0 -- -- 78
2019-04-02 16:00:00 17.9 12 Noroeste 26 Noroeste 0 -- -- 78
2019-04-02 15:00:00 18.9 6 Noroeste 19 Norte 0 -- -- 67
2019-04-02 14:00:00 18.9 5 Norte 24 Este 0 -- -- 67
2019-04-02 13:00:00 19.5 13 Este 27 Este 0 -- -- 66
2019-04-02 12:00:00 18.7 15 Este 29 Este 0 -- -- 70
2019-04-02 11:00:00 17.5 10 Este 22 Este 0 -- -- 76
2019-04-02 10:00:00 16 10 Sudeste 23 Sudeste 0 -- -- 80
2019-04-02 09:00:00 15.2 0 Calma 14 Sur 0 -- -- 86
2019-04-02 08:00:00 14.5 7 Sur 13 Sur 0 -- -- 83
2019-04-02 07:00:00 14.2 2 Sur 9 Sur 0 -- -- 88
2019-04-02 06:00:00 14.5 4 Sur 9 Sur 0 -- -- 89
2019-04-02 05:00:00 14 4 Sur 10 Sur 0 -- -- 89
2019-04-02 04:00:00 13.4 7 Sur 12 Sur 0 -- -- 85
2019-04-02 03:00:00 13.3 6 Sur 10 Sur 0 -- -- 85
2019-04-02 02:00:00 13.5 5 Sudoeste 9 Sudoeste 0 -- -- 85
2019-04-02 01:00:00 13.8 4 Sur 10 Sudoeste 0 -- -- 85
2019-04-02 00:00:00 14 5 Sur 8 Sur 0 -- -- 86
2019-04-01 23:00:00 14.4 3 Sur 5 Sur 0 -- -- 84
2019-04-01 22:00:00 15.3 2 Sur 6 Sudeste 0 -- -- 84
2019-04-01 21:00:00 15.5 3 Sur 6 Sur 0 -- -- 85
2019-04-01 20:00:00 15.9 0 Calma 10 Este 0 -- -- 82
2019-04-01 19:00:00 16.1 4 Sudeste 12 Sudeste 0 -- -- 81
2019-04-01 18:00:00 16.1 8 Sudeste 14 Sudeste 0 -- -- 79
2019-04-01 17:00:00 16.4 6 Este 14 Este 0 -- -- 71
2019-04-01 16:00:00 16.8 8 Este 15 Nordeste 0 -- -- 73
2019-04-01 15:00:00 16.5 5 Sudeste 14 Sudeste 0 -- -- 75
2019-04-01 14:00:00 16.4 8 Este 15 Nordeste 0 -- -- 78
2019-04-01 13:00:00 17.2 9 Nordeste -- -- -- -- -- 70
2019-04-01 12:00:00 -- -- -- -- -- -- -- -- --
2019-04-01 11:00:00 17.7 6 Nordeste 12 Nordeste 0 -- -- 69
2019-04-01 10:00:00 16.3 5 Noroeste 12 Noroeste 0 -- -- 77
2019-04-01 09:00:00 14 4 Sudoeste 8 Oeste 0 -- -- 80
2019-04-01 08:00:00 12.4 4 Sur 9 Sudoeste 0 -- -- 82
2019-04-01 07:00:00 12.9 2 Sur 11 Sudoeste 0 -- -- 83
2019-04-01 06:00:00 13.4 4 Oeste 17 Oeste 0 -- -- 84
2019-04-01 05:00:00 13.9 6 Oeste 15 Oeste 0 -- -- 87
2019-04-01 04:00:00 14.3 5 Oeste 12 Oeste 0 -- -- 88
2019-04-01 03:00:00 14.2 6 Oeste 13 Oeste 0 -- -- 87
2019-04-01 02:00:00 14.5 5 Oeste 13 Oeste 0 -- -- 85
2019-04-01 01:00:00 14.3 6 Oeste 14 Oeste 0 -- -- 82
2019-04-01 00:00:00 14.3 6 Oeste 13 Oeste 0 -- -- 79
2019-03-31 23:00:00 14.6 5 Oeste 14 Oeste 0 -- -- 78
2019-03-31 22:00:00 15.2 7 Oeste 15 Oeste 0 -- -- 80
2019-03-31 21:00:00 15.7 7 Noroeste 14 Noroeste 0 -- -- 77
2019-03-31 20:00:00 16.4 7 Noroeste 17 Noroeste 0 -- -- 73
2019-03-31 19:00:00 17.3 8 Noroeste 16 Noroeste 0 -- -- 69
2019-03-31 18:00:00 18 5 Noroeste 25 Sudeste 0 -- -- 61
2019-03-31 17:00:00 18 3 Sudeste 10 Este 0 -- -- 64
2019-03-31 16:00:00 18.2 4 Este 14 Norte 0 -- -- 64
2019-03-31 15:00:00 18.9 7 Norte 23 Noroeste 0 -- -- 60
2019-03-31 14:00:00 18.8 9 Noroeste 22 Noroeste 0 -- -- 59
2019-03-31 13:00:00 19.6 7 Norte 19 Nordeste 0 -- -- 61
2019-03-31 12:00:00 19.7 6 Nordeste 15 Norte 0 -- -- 61
2019-03-31 11:00:00 18.4 7 Noroeste 14 Noroeste 0 -- -- 58
2019-03-31 10:00:00 17 3 Nordeste 7 Norte 0 -- -- 63
2019-03-31 09:00:00 14.4 4 Oeste 13 Oeste 0 -- -- 71
2019-03-31 08:00:00 12.5 3 Sudoeste 11 Oeste 0 -- -- 67
2019-03-31 07:00:00 12.6 4 Sudoeste 15 Oeste 0 -- -- 68
2019-03-31 06:00:00 12.7 12 Oeste 22 Oeste 0 -- -- 70
2019-03-31 05:00:00 13.1 9 Oeste 25 Oeste 0 -- -- 79
2019-03-31 04:00:00 13.2 10 Oeste 18 Oeste 0 -- -- 83
2019-03-31 00:00:00 13 4 Sudoeste 8 Oeste 0 -- -- 83
2019-03-30 23:00:00 13.6 2 Sur 6 Sudoeste 0 -- -- 81
2019-03-30 22:00:00 14.2 0 Calma 9 Oeste 0 -- -- 79
2019-03-30 21:00:00 15 6 Noroeste 18 Noroeste 0 -- -- 75
2019-03-30 20:00:00 15.3 8 Noroeste 18 Noroeste 0 -- -- 76
2019-03-30 19:00:00 15.7 13 Noroeste 21 Noroeste 0 -- -- 76
2019-03-30 18:00:00 17.1 10 Noroeste 18 Norte 0 -- -- 71
2019-03-30 17:00:00 17.7 9 Noroeste 20 Norte 0 -- -- 67
2019-03-30 16:00:00 18.1 8 Noroeste 20 Noroeste 0 -- -- 66
2019-03-30 15:00:00 18.1 11 Noroeste 26 Noroeste 0 -- -- 68
2019-03-30 14:00:00 18.1 12 Norte 26 Noroeste 0 -- -- 64
2019-03-30 13:00:00 18.2 10 Norte 24 Norte 0 -- -- 67
2019-03-30 12:00:00 17.7 10 Noroeste 18 Noroeste 0 -- -- 68
2019-03-30 11:00:00 16.8 8 Norte 15 Noroeste 0 -- -- 76
2019-03-30 10:00:00 14.1 4 Noroeste 12 Oeste 0 -- -- 84
2019-03-30 09:00:00 12.9 8 Oeste 25 Noroeste 0 -- -- 90
2019-03-30 08:00:00 13 8 Oeste 19 Noroeste 0 -- -- 88
2019-03-30 07:00:00 11.5 6 Sur 13 Sur 0 -- -- 84
2019-03-30 06:00:00 12 8 Sudoeste 12 Sur 0 -- -- 82
2019-03-30 05:00:00 11.8 8 Sudoeste 13 Sur 0 -- -- 79
2019-03-30 04:00:00 11.7 9 Sur 16 Sudoeste 0 -- -- 77
2019-03-30 03:00:00 12 10 Sur 17 Sur 0 -- -- 80
2019-03-30 02:00:00 12.3 8 Sur 12 Sudoeste 0 -- -- 85
2019-03-30 01:00:00 12.9 4 Sudoeste 9 Sudoeste 0 -- -- 89
2019-03-30 00:00:00 13.5 4 Oeste 13 Oeste 0 -- -- 89
2019-03-29 23:00:00 14.1 7 Oeste 21 Oeste 0 -- -- 90
2019-03-29 22:00:00 14.2 10 Noroeste 25 Oeste 0 -- -- 90
2019-03-29 21:00:00 14.5 4 Oeste 13 Oeste 0 -- -- 90
2019-03-29 20:00:00 15.2 3 Oeste 14 Noroeste 0 -- -- 87
2019-03-29 19:00:00 15.8 3 Noroeste 7 Noroeste 0 -- -- 85
2019-03-29 18:00:00 16.3 5 Este 12 Este 0 -- -- 86
2019-03-29 17:00:00 16.5 6 Sudeste 13 Sudeste 0 -- -- 84
2019-03-29 16:00:00 16.3 4 Sudeste 13 Este 0 -- -- 87
2019-03-29 15:00:00 16.1 4 Este 16 Este 0.2 -- -- 90
2019-03-29 14:00:00 15.9 6 Este 12 Este 1.6 -- -- 91
2019-03-29 13:00:00 16.3 8 Este 23 Este 0.8 -- -- 88
2019-03-29 12:00:00 18.5 12 Este 23 Este 0 -- -- 72
2019-03-29 11:00:00 18.6 9 Este 19 Este 0 -- -- 72
2019-03-29 10:00:00 17.6 8 Sudeste 15 Este 0 -- -- 69
2019-03-29 09:00:00 16 3 Sudeste 12 Sudoeste 0 -- -- 76
2019-03-29 08:00:00 12.7 6 Sudoeste 15 Sur 0 -- -- 80
2019-03-29 07:00:00 11.6 11 Sur 17 Sudoeste 0 -- -- 80
2019-03-29 06:00:00 12.1 9 Sur 15 Sur 0 -- -- 83
2019-03-29 05:00:00 12.4 9 Sur 15 Sudoeste 0 -- -- 82
2019-03-29 04:00:00 12.7 9 Sur 14 Sur 0 -- -- 87
2019-03-29 03:00:00 12.3 8 Sur 12 Sudoeste 0 -- -- 89
2019-03-29 02:00:00 12.3 6 Sur 12 Sudoeste 0 -- -- 87
2019-03-29 01:00:00 13.5 7 Sur 10 Sur 0 -- -- 91
2019-03-29 00:00:00 14.5 0 Calma 4 Sur 0 -- -- 92
2019-03-28 23:00:00 14.6 2 Sudeste 5 Sudeste 0 -- -- 92
2019-03-28 22:00:00 14.5 3 Sudeste 4 Sudoeste 0 -- -- 92
2019-03-28 21:00:00 14.7 3 Sudoeste 6 Sur 0 -- -- 92
2019-03-28 20:00:00 15 4 Sudoeste 7 Sudoeste 0.6 -- -- 92
2019-03-28 19:00:00 15.1 4 Este 14 Nordeste 3 -- -- 91
2019-03-28 18:00:00 15.7 8 Nordeste 18 Este 0.2 -- -- 87
2019-03-28 17:00:00 15.9 5 Nordeste 11 Nordeste 0.2 -- -- 87
2019-03-28 16:00:00 16.1 6 Nordeste 14 Este 0.4 -- -- 87
2019-03-28 15:00:00 16.4 7 Este 17 Este 0 -- -- 82
2019-03-28 14:00:00 16.9 9 Este 19 Este 0 -- -- 78
2019-03-28 13:00:00 17.6 11 Este 23 Nordeste 0 -- -- 74
2019-03-28 12:00:00 17.8 10 Nordeste 21 Nordeste 0 -- -- 73
2019-03-28 11:00:00 17.6 9 Nordeste 19 Este 0 -- -- 77
2019-03-28 10:00:00 16.9 4 Este 11 Nordeste 0 -- -- 76
2019-03-28 09:00:00 16 3 Norte 9 Sur 0 -- -- 81
2019-03-28 08:00:00 13.6 7 Sur 14 Sudoeste 0 -- -- 75
2019-03-28 07:00:00 12.8 9 Sur 14 Sur 0 -- -- 80
2019-03-28 06:00:00 12.8 8 Sur 13 Sur 0 -- -- 82
2019-03-28 05:00:00 12.6 6 Sudoeste 10 Sudoeste 0 -- -- 81
2019-03-28 04:00:00 12.9 4 Sudoeste 13 Sur 0 -- -- 82
2019-03-28 03:00:00 12.7 6 Sur 10 Sur 0 -- -- 84
2019-03-28 02:00:00 13.2 6 Sudoeste 10 Sur 0 -- -- 86
2019-03-28 01:00:00 14.1 5 Sudoeste 9 Sudoeste 0 -- -- 87
2019-03-28 00:00:00 14.5 2 Sur 6 Noroeste 0 -- -- 86
2019-03-27 23:00:00 15 4 Noroeste 14 Norte 0 -- -- 84
2019-03-27 22:00:00 15.6 9 Noroeste 19 Noroeste 0 -- -- 82
2019-03-27 21:00:00 15.8 9 Noroeste 17 Noroeste 0 -- -- 83
2019-03-27 20:00:00 15.9 9 Noroeste 20 Noroeste 0 -- -- 81
2019-03-27 19:00:00 16.3 10 Noroeste 21 Noroeste 0 -- -- 81
2019-03-27 18:00:00 16.7 12 Noroeste 21 Noroeste 0 -- -- 79
2019-03-27 17:00:00 16.6 11 Noroeste 21 Noroeste 0 -- -- 79
2019-03-27 16:00:00 17.4 9 Norte 24 Noroeste 0 -- -- 76
2019-03-27 15:00:00 17.4 12 Norte 24 Norte 0 -- -- 75
2019-03-27 14:00:00 18.4 12 Norte 26 Norte 0 -- -- 71
2019-03-27 13:00:00 18.9 15 Noroeste 26 Noroeste 0 -- -- 72
2019-03-27 12:00:00 18.7 14 Noroeste 28 Noroeste 0 -- -- 72
2019-03-27 11:00:00 18.1 14 Noroeste 21 Noroeste 0 -- -- 77
2019-03-27 10:00:00 16.8 13 Noroeste 24 Noroeste 0 -- -- 81
2019-03-27 09:00:00 16.1 14 Noroeste 25 Oeste 0.2 -- -- 89
2019-03-27 08:00:00 15.8 8 Noroeste 14 Noroeste 0 -- -- 91
2019-03-27 07:00:00 15.1 8 Oeste 17 Oeste 0 -- -- 90
2019-03-27 06:00:00 14.5 5 Oeste 21 Oeste 0 -- -- 85
2019-03-27 05:00:00 15 8 Oeste 26 Noroeste 0 -- -- 88
2019-03-27 04:00:00 15.3 9 Noroeste 19 Noroeste 0 -- -- 90
2019-03-27 03:00:00 15.3 8 Noroeste 21 Oeste 0 -- -- 85
2019-03-27 02:00:00 15.2 12 Oeste 24 Oeste 0 -- -- 84
2019-03-27 01:00:00 14.8 10 Oeste 21 Oeste 0 -- -- 82
2019-03-27 00:00:00 15.1 10 Oeste 22 Oeste 0 -- -- 82
2019-03-26 23:00:00 15 9 Oeste 19 Oeste 0 -- -- 81
2019-03-26 22:00:00 15 10 Oeste 22 Oeste 0 -- -- 83
2019-03-26 21:00:00 15 8 Oeste 17 Oeste 0 -- -- 85
2019-03-26 20:00:00 15.4 6 Noroeste 17 Noroeste 0 -- -- 84
2019-03-26 19:00:00 16.2 8 Noroeste 19 Noroeste 0 -- -- 79
2019-03-26 18:00:00 17.5 12 Noroeste 19 Noroeste 0 -- -- 74
2019-03-26 17:00:00 18.6 9 Norte 19 Noroeste 0 -- -- 69
2019-03-26 16:00:00 18.3 6 Noroeste 18 Noroeste 0 -- -- 72
2019-03-26 15:00:00 17.5 13 Noroeste 26 Nordeste 0 -- -- 75
2019-03-26 14:00:00 18.1 11 Norte 22 Norte 0 -- -- 73
2019-03-26 13:00:00 17.8 9 Noroeste 19 Norte 0 -- -- 78
2019-03-26 12:00:00 15.1 6 Noroeste 23 Noroeste 1.4 -- -- 93
2019-03-26 11:00:00 16.9 11 Noroeste 22 Norte 0 -- -- 79
2019-03-26 10:00:00 16.3 11 Noroeste 19 Noroeste 0 -- -- 80
2019-03-26 09:00:00 15.5 9 Noroeste 16 Noroeste 0 -- -- 79
2019-03-26 08:00:00 13.1 4 Oeste 13 Oeste 0 -- -- 81
2019-03-26 07:00:00 12.2 4 Sudoeste 13 Oeste 0 -- -- 82
2019-03-26 06:00:00 12.2 5 Oeste 13 Oeste 0 -- -- 88
2019-03-26 05:00:00 11.6 9 Sudoeste 19 Sudoeste 0 -- -- 81
2019-03-26 04:00:00 11.8 7 Sudoeste 12 Sur 0 -- -- 84
2019-03-26 03:00:00 12.4 3 Sudoeste 10 Sudoeste 0 -- -- 88
2019-03-26 02:00:00 12.5 2 Sudoeste 11 Sur 0 -- -- 87
2019-03-26 01:00:00 12.7 4 Oeste 14 Sudoeste 0 -- -- 90
2019-03-26 00:00:00 13.1 3 Sudoeste 7 Oeste 0 -- -- 90
2019-03-25 23:00:00 13.6 4 Sudoeste 10 Sudoeste 0 -- -- 89
2019-03-25 22:00:00 14.1 0 Calma 12 Sur 0 -- -- 89
2019-03-25 21:00:00 14 5 Sudeste 11 Sudeste 0 -- -- 90
2019-03-25 20:00:00 14.1 6 Sudeste 17 Sur 0 -- -- 87
2019-03-25 19:00:00 14.9 7 Sur 26 Sudeste 0 -- -- 82
2019-03-25 18:00:00 15.2 10 Este 23 Sudeste 0 -- -- 86
2019-03-25 17:00:00 15.4 8 Este 22 Este 0 -- -- 86
2019-03-25 16:00:00 14.7 4 Nordeste 10 Sudeste 5.2 -- -- 91
2019-03-25 15:00:00 15.7 3 Norte 9 Nordeste 0.2 -- -- 79
2019-03-25 14:00:00 16.8 6 Nordeste 17 Noroeste 0 -- -- 69
2019-03-25 13:00:00 18.1 9 Norte 21 Noroeste 0 -- -- 61
2019-03-25 12:00:00 18.7 10 Norte 20 Norte 0 -- -- 54
2019-03-25 11:00:00 17.3 4 Noroeste 13 Noroeste 0 -- -- 64
2019-03-25 10:00:00 15 3 Oeste 6 Oeste 0 -- -- 77
2019-03-25 09:00:00 14.2 4 Sudeste 13 Sudeste 0 -- -- 82
2019-03-25 08:00:00 13.7 5 Sudeste 13 Sudeste 0 -- -- 84
2019-03-25 07:00:00 12.1 5 Sur 15 Sur 0 -- -- 72
2019-03-25 06:00:00 12.1 7 Sur 13 Sudoeste 0 -- -- 72
2019-03-25 05:00:00 12.1 4 Sur 13 Sur 0 -- -- 75
2019-03-25 04:00:00 12.3 8 Sur 12 Sur 0 -- -- 73
2019-03-25 03:00:00 12.3 5 Sur 11 Sudoeste 0 -- -- 75
2019-03-25 02:00:00 12.4 2 Oeste 8 Sudoeste 0 -- -- 84
2019-03-25 01:00:00 12.5 4 Sur 11 Sudoeste 0 -- -- 79
2019-03-25 00:00:00 12.6 6 Sur 12 Sudoeste 0 -- -- 81